sensor_id;sensor_type;location;lat;lon;timestamp;P1;durP1;ratioP1;P2;durP2;ratioP2
15297;SDS011;7750;48.796;9.026;2023-07-20T00:02:20;4.30;;;2.63;;
15297;SDS011;7750;48.796;9.026;2023-07-20T00:07:27;4.13;;;2.50;;
15297;SDS011;7750;48.796;9.026;2023-07-20T00:23:25;3.47;;;2.30;;
15297;SDS011;7750;48.796;9.026;2023-07-20T00:40:03;4.50;;;2.97;;
15297;SDS011;7750;48.796;9.026;2023-07-20T01:19:32;6.33;;;3.10;;
15297;SDS011;7750;48.796;9.026;2023-07-20T01:35:15;4.70;;;2.40;;
15297;SDS011;7750;48.796;9.026;2023-07-20T01:40:46;5.57;;;2.50;;
15297;SDS011;7750;48.796;9.026;2023-07-20T01:46:03;3.70;;;2.47;;
15297;SDS011;7750;48.796;9.026;2023-07-20T01:51:13;3.70;;;2.70;;
15297;SDS011;7750;48.796;9.026;2023-07-20T01:56:18;5.20;;;2.70;;
15297;SDS011;7750;48.796;9.026;2023-07-20T02:01:21;5.60;;;2.30;;
15297;SDS011;7750;48.796;9.026;2023-07-20T02:06:24;5.90;;;3.00;;
15297;SDS011;7750;48.796;9.026;2023-07-20T02:11:25;4.03;;;2.53;;
15297;SDS011;7750;48.796;9.026;2023-07-20T02:16:25;3.80;;;2.47;;
15297;SDS011;7750;48.796;9.026;2023-07-20T02:21:26;4.40;;;2.43;;
15297;SDS011;7750;48.796;9.026;2023-07-20T02:26:27;4.10;;;2.50;;
15297;SDS011;7750;48.796;9.026;2023-07-20T02:31:30;3.57;;;2.30;;
15297;SDS011;7750;48.796;9.026;2023-07-20T02:36:31;3.77;;;2.70;;
15297;SDS011;7750;48.796;9.026;2023-07-20T02:41:37;4.07;;;2.60;;
15297;SDS011;7750;48.796;9.026;2023-07-20T02:46:38;3.97;;;2.57;;
15297;SDS011;7750;48.796;9.026;2023-07-20T02:51:49;3.60;;;2.53;;
15297;SDS011;7750;48.796;9.026;2023-07-20T02:56:50;4.87;;;2.80;;
15297;SDS011;7750;48.796;9.026;2023-07-20T03:01:51;4.43;;;2.57;;
15297;SDS011;7750;48.796;9.026;2023-07-20T03:06:54;5.27;;;3.27;;
15297;SDS011;7750;48.796;9.026;2023-07-20T03:11:57;3.77;;;2.63;;
15297;SDS011;7750;48.796;9.026;2023-07-20T03:16:58;3.30;;;2.27;;
15297;SDS011;7750;48.796;9.026;2023-07-20T03:21:58;5.77;;;2.47;;
15297;SDS011;7750;48.796;9.026;2023-07-20T03:26:59;8.90;;;2.77;;
15297;SDS011;7750;48.796;9.026;2023-07-20T03:32:03;3.83;;;2.70;;
15297;SDS011;7750;48.796;9.026;2023-07-20T03:37:04;4.73;;;2.50;;
15297;SDS011;7750;48.796;9.026;2023-07-20T03:42:05;4.50;;;2.60;;
15297;SDS011;7750;48.796;9.026;2023-07-20T03:47:10;5.20;;;2.80;;
15297;SDS011;7750;48.796;9.026;2023-07-20T03:52:13;5.00;;;3.00;;
15297;SDS011;7750;48.796;9.026;2023-07-20T03:57:14;4.40;;;2.67;;
15297;SDS011;7750;48.796;9.026;2023-07-20T04:02:15;4.50;;;2.73;;
15297;SDS011;7750;48.796;9.026;2023-07-20T04:07:28;4.07;;;2.63;;
15297;SDS011;7750;48.796;9.026;2023-07-20T04:12:37;3.23;;;2.37;;
15297;SDS011;7750;48.796;9.026;2023-07-20T04:17:37;4.53;;;3.10;;
15297;SDS011;7750;48.796;9.026;2023-07-20T04:27:51;3.40;;;2.60;;
15297;SDS011;7750;48.796;9.026;2023-07-20T04:32:52;5.20;;;2.57;;
15297;SDS011;7750;48.796;9.026;2023-07-20T04:37:52;5.07;;;2.90;;
15297;SDS011;7750;48.796;9.026;2023-07-20T04:42:53;4.90;;;2.40;;
15297;SDS011;7750;48.796;9.026;2023-07-20T04:47:54;4.00;;;2.70;;
15297;SDS011;7750;48.796;9.026;2023-07-20T04:52:54;3.50;;;2.53;;
15297;SDS011;7750;48.796;9.026;2023-07-20T04:57:55;5.37;;;2.93;;
15297;SDS011;7750;48.796;9.026;2023-07-20T05:02:56;4.07;;;2.67;;
15297;SDS011;7750;48.796;9.026;2023-07-20T05:07:56;3.30;;;2.20;;
15297;SDS011;7750;48.796;9.026;2023-07-20T05:12:57;3.40;;;2.43;;
15297;SDS011;7750;48.796;9.026;2023-07-20T05:17:58;7.60;;;3.50;;
15297;SDS011;7750;48.796;9.026;2023-07-20T05:22:59;4.23;;;2.93;;
15297;SDS011;7750;48.796;9.026;2023-07-20T05:28:00;4.30;;;2.90;;
15297;SDS011;7750;48.796;9.026;2023-07-20T05:33:01;7.20;;;2.63;;
15297;SDS011;7750;48.796;9.026;2023-07-20T05:38:02;4.90;;;2.80;;
15297;SDS011;7750;48.796;9.026;2023-07-20T05:43:05;4.13;;;2.67;;
15297;SDS011;7750;48.796;9.026;2023-07-20T05:48:06;4.03;;;2.90;;
15297;SDS011;7750;48.796;9.026;2023-07-20T05:53:06;4.80;;;2.60;;
15297;SDS011;7750;48.796;9.026;2023-07-20T05:58:07;3.90;;;2.73;;
15297;SDS011;7750;48.796;9.026;2023-07-20T06:03:08;4.73;;;2.67;;
15297;SDS011;7750;48.796;9.026;2023-07-20T06:08:18;3.60;;;2.13;;
15297;SDS011;7750;48.796;9.026;2023-07-20T06:29:35;5.70;;;3.40;;
15297;SDS011;7750;48.796;9.026;2023-07-20T06:34:38;4.50;;;2.70;;
15297;SDS011;7750;48.796;9.026;2023-07-20T06:39:39;5.73;;;2.80;;
15297;SDS011;7750;48.796;9.026;2023-07-20T06:44:40;9.10;;;3.20;;
15297;SDS011;7750;48.796;9.026;2023-07-20T06:49:40;6.00;;;2.70;;
15297;SDS011;7750;48.796;9.026;2023-07-20T06:54:41;6.33;;;2.80;;
15297;SDS011;7750;48.796;9.026;2023-07-20T06:59:41;6.97;;;2.90;;
15297;SDS011;7750;48.796;9.026;2023-07-20T07:04:42;8.17;;;3.00;;
15297;SDS011;7750;48.796;9.026;2023-07-20T07:09:43;7.90;;;3.10;;
15297;SDS011;7750;48.796;9.026;2023-07-20T07:14:44;8.10;;;3.40;;
15297;SDS011;7750;48.796;9.026;2023-07-20T07:19:44;8.33;;;3.07;;
15297;SDS011;7750;48.796;9.026;2023-07-20T07:24:48;7.17;;;3.27;;
15297;SDS011;7750;48.796;9.026;2023-07-20T07:29:49;4.80;;;2.40;;
15297;SDS011;7750;48.796;9.026;2023-07-20T07:34:49;4.87;;;2.97;;
15297;SDS011;7750;48.796;9.026;2023-07-20T07:39:50;4.40;;;2.70;;
15297;SDS011;7750;48.796;9.026;2023-07-20T07:44:54;4.30;;;2.73;;
15297;SDS011;7750;48.796;9.026;2023-07-20T07:49:55;3.63;;;2.70;;
15297;SDS011;7750;48.796;9.026;2023-07-20T07:54:55;5.20;;;2.80;;
15297;SDS011;7750;48.796;9.026;2023-07-20T07:59:56;4.03;;;2.60;;
15297;SDS011;7750;48.796;9.026;2023-07-20T08:04:59;5.47;;;3.10;;
15297;SDS011;7750;48.796;9.026;2023-07-20T08:10:00;5.97;;;2.80;;
15297;SDS011;7750;48.796;9.026;2023-07-20T08:15:01;6.00;;;3.00;;
15297;SDS011;7750;48.796;9.026;2023-07-20T08:20:02;3.60;;;2.60;;
15297;SDS011;7750;48.796;9.026;2023-07-20T08:25:03;5.00;;;3.17;;
15297;SDS011;7750;48.796;9.026;2023-07-20T08:30:04;5.40;;;2.53;;
15297;SDS011;7750;48.796;9.026;2023-07-20T08:35:08;5.93;;;2.27;;
15297;SDS011;7750;48.796;9.026;2023-07-20T08:40:09;5.97;;;2.47;;
15297;SDS011;7750;48.796;9.026;2023-07-20T08:45:10;9.30;;;4.53;;
15297;SDS011;7750;48.796;9.026;2023-07-20T08:50:14;4.87;;;2.47;;
15297;SDS011;7750;48.796;9.026;2023-07-20T08:55:16;4.63;;;2.47;;
15297;SDS011;7750;48.796;9.026;2023-07-20T09:00:17;3.93;;;2.60;;
15297;SDS011;7750;48.796;9.026;2023-07-20T09:05:20;4.03;;;2.53;;
15297;SDS011;7750;48.796;9.026;2023-07-20T09:10:23;5.40;;;2.70;;
15297;SDS011;7750;48.796;9.026;2023-07-20T09:15:24;3.27;;;2.30;;
15297;SDS011;7750;48.796;9.026;2023-07-20T09:20:25;3.97;;;2.57;;
15297;SDS011;7750;48.796;9.026;2023-07-20T09:25:26;3.53;;;2.33;;
15297;SDS011;7750;48.796;9.026;2023-07-20T09:30:27;8.57;;;2.30;;
15297;SDS011;7750;48.796;9.026;2023-07-20T09:35:28;9.43;;;2.80;;
15297;SDS011;7750;48.796;9.026;2023-07-20T09:40:29;3.90;;;2.57;;
15297;SDS011;7750;48.796;9.026;2023-07-20T09:45:30;3.63;;;2.40;;
15297;SDS011;7750;48.796;9.026;2023-07-20T09:50:34;3.30;;;2.30;;
15297;SDS011;7750;48.796;9.026;2023-07-20T09:55:45;4.70;;;2.10;;
15297;SDS011;7750;48.796;9.026;2023-07-20T10:00:46;3.80;;;1.97;;
15297;SDS011;7750;48.796;9.026;2023-07-20T10:05:54;4.27;;;2.03;;
15297;SDS011;7750;48.796;9.026;2023-07-20T10:11:02;5.53;;;2.33;;
15297;SDS011;7750;48.796;9.026;2023-07-20T10:16:05;3.20;;;2.30;;
15297;SDS011;7750;48.796;9.026;2023-07-20T10:21:11;4.17;;;2.10;;
15297;SDS011;7750;48.796;9.026;2023-07-20T10:26:19;3.50;;;2.33;;
15297;SDS011;7750;48.796;9.026;2023-07-20T10:31:22;3.90;;;2.30;;
15297;SDS011;7750;48.796;9.026;2023-07-20T10:36:27;4.87;;;2.20;;
15297;SDS011;7750;48.796;9.026;2023-07-20T10:51:42;5.87;;;1.77;;
15297;SDS011;7750;48.796;9.026;2023-07-20T10:56:48;2.93;;;1.80;;
15297;SDS011;7750;48.796;9.026;2023-07-20T11:02:00;3.03;;;1.97;;
15297;SDS011;7750;48.796;9.026;2023-07-20T11:07:06;3.57;;;1.90;;
15297;SDS011;7750;48.796;9.026;2023-07-20T11:12:11;3.43;;;2.20;;
15297;SDS011;7750;48.796;9.026;2023-07-20T11:17:14;2.70;;;1.60;;
15297;SDS011;7750;48.796;9.026;2023-07-20T11:22:16;2.93;;;1.70;;
15297;SDS011;7750;48.796;9.026;2023-07-20T11:27:17;2.60;;;2.00;;
15297;SDS011;7750;48.796;9.026;2023-07-20T11:32:28;2.33;;;1.77;;
15297;SDS011;7750;48.796;9.026;2023-07-20T11:37:28;2.60;;;1.80;;
15297;SDS011;7750;48.796;9.026;2023-07-20T11:42:29;4.10;;;1.97;;
15297;SDS011;7750;48.796;9.026;2023-07-20T11:47:30;4.40;;;1.70;;
15297;SDS011;7750;48.796;9.026;2023-07-20T11:52:31;3.17;;;2.23;;
15297;SDS011;7750;48.796;9.026;2023-07-20T11:57:31;2.93;;;2.20;;
15297;SDS011;7750;48.796;9.026;2023-07-20T12:02:32;3.50;;;2.30;;
15297;SDS011;7750;48.796;9.026;2023-07-20T12:07:34;2.57;;;1.93;;
15297;SDS011;7750;48.796;9.026;2023-07-20T12:12:40;3.67;;;1.90;;
15297;SDS011;7750;48.796;9.026;2023-07-20T12:17:45;4.07;;;2.10;;
15297;SDS011;7750;48.796;9.026;2023-07-20T12:22:46;3.67;;;2.07;;
15297;SDS011;7750;48.796;9.026;2023-07-20T12:27:50;3.70;;;2.03;;
15297;SDS011;7750;48.796;9.026;2023-07-20T12:32:51;3.13;;;2.20;;
15297;SDS011;7750;48.796;9.026;2023-07-20T12:37:51;3.30;;;2.10;;
15297;SDS011;7750;48.796;9.026;2023-07-20T12:42:53;3.83;;;1.90;;
15297;SDS011;7750;48.796;9.026;2023-07-20T12:47:57;2.60;;;1.70;;
15297;SDS011;7750;48.796;9.026;2023-07-20T12:52:58;4.13;;;2.13;;
15297;SDS011;7750;48.796;9.026;2023-07-20T12:57:58;3.57;;;1.80;;
15297;SDS011;7750;48.796;9.026;2023-07-20T13:02:59;2.50;;;1.80;;
15297;SDS011;7750;48.796;9.026;2023-07-20T13:08:00;3.57;;;2.33;;
15297;SDS011;7750;48.796;9.026;2023-07-20T13:13:01;4.97;;;2.13;;
15297;SDS011;7750;48.796;9.026;2023-07-20T13:18:01;2.43;;;1.83;;
15297;SDS011;7750;48.796;9.026;2023-07-20T13:23:03;3.07;;;2.13;;
15297;SDS011;7750;48.796;9.026;2023-07-20T13:28:05;3.10;;;2.10;;
15297;SDS011;7750;48.796;9.026;2023-07-20T13:33:05;2.67;;;1.83;;
15297;SDS011;7750;48.796;9.026;2023-07-20T13:38:06;2.90;;;1.80;;
15297;SDS011;7750;48.796;9.026;2023-07-20T13:43:07;3.50;;;1.97;;
15297;SDS011;7750;48.796;9.026;2023-07-20T13:48:07;3.37;;;2.10;;
15297;SDS011;7750;48.796;9.026;2023-07-20T13:53:08;3.00;;;2.00;;
15297;SDS011;7750;48.796;9.026;2023-07-20T13:58:09;4.37;;;1.77;;
15297;SDS011;7750;48.796;9.026;2023-07-20T14:03:15;2.80;;;1.97;;
15297;SDS011;7750;48.796;9.026;2023-07-20T14:08:18;2.87;;;1.80;;
15297;SDS011;7750;48.796;9.026;2023-07-20T14:13:19;3.17;;;1.87;;
15297;SDS011;7750;48.796;9.026;2023-07-20T14:18:19;3.47;;;1.80;;
15297;SDS011;7750;48.796;9.026;2023-07-20T14:23:20;3.20;;;2.00;;
15297;SDS011;7750;48.796;9.026;2023-07-20T14:28:21;3.10;;;2.10;;
15297;SDS011;7750;48.796;9.026;2023-07-20T14:33:21;2.50;;;1.70;;
15297;SDS011;7750;48.796;9.026;2023-07-20T14:38:22;2.60;;;2.00;;
15297;SDS011;7750;48.796;9.026;2023-07-20T14:43:23;3.13;;;1.80;;
15297;SDS011;7750;48.796;9.026;2023-07-20T14:48:23;3.10;;;1.80;;
15297;SDS011;7750;48.796;9.026;2023-07-20T14:53:24;2.80;;;2.10;;
15297;SDS011;7750;48.796;9.026;2023-07-20T14:58:29;4.20;;;2.00;;
15297;SDS011;7750;48.796;9.026;2023-07-20T15:03:30;5.10;;;2.30;;
15297;SDS011;7750;48.796;9.026;2023-07-20T15:08:33;3.13;;;2.10;;
15297;SDS011;7750;48.796;9.026;2023-07-20T15:13:34;2.60;;;1.93;;
15297;SDS011;7750;48.796;9.026;2023-07-20T15:18:34;2.90;;;1.97;;
15297;SDS011;7750;48.796;9.026;2023-07-20T15:23:35;3.27;;;2.03;;
15297;SDS011;7750;48.796;9.026;2023-07-20T15:28:35;2.60;;;2.10;;
15297;SDS011;7750;48.796;9.026;2023-07-20T15:33:37;4.43;;;2.10;;
15297;SDS011;7750;48.796;9.026;2023-07-20T15:38:37;3.07;;;2.13;;
15297;SDS011;7750;48.796;9.026;2023-07-20T15:43:38;2.57;;;1.80;;
15297;SDS011;7750;48.796;9.026;2023-07-20T15:48:38;3.33;;;2.00;;
15297;SDS011;7750;48.796;9.026;2023-07-20T15:53:39;2.40;;;1.90;;
15297;SDS011;7750;48.796;9.026;2023-07-20T15:58:40;3.37;;;2.17;;
15297;SDS011;7750;48.796;9.026;2023-07-20T16:03:40;3.07;;;1.93;;
15297;SDS011;7750;48.796;9.026;2023-07-20T16:08:41;4.07;;;1.90;;
15297;SDS011;7750;48.796;9.026;2023-07-20T16:13:42;6.23;;;1.90;;
15297;SDS011;7750;48.796;9.026;2023-07-20T16:18:44;3.20;;;1.90;;
15297;SDS011;7750;48.796;9.026;2023-07-20T16:23:44;2.90;;;1.87;;
15297;SDS011;7750;48.796;9.026;2023-07-20T16:28:45;3.53;;;1.83;;
15297;SDS011;7750;48.796;9.026;2023-07-20T16:33:46;2.47;;;2.00;;
15297;SDS011;7750;48.796;9.026;2023-07-20T16:38:46;3.20;;;1.83;;
15297;SDS011;7750;48.796;9.026;2023-07-20T16:43:47;3.13;;;2.03;;
15297;SDS011;7750;48.796;9.026;2023-07-20T16:48:48;2.60;;;1.70;;
15297;SDS011;7750;48.796;9.026;2023-07-20T16:53:48;2.70;;;1.90;;
15297;SDS011;7750;48.796;9.026;2023-07-20T16:58:49;2.50;;;1.80;;
15297;SDS011;7750;48.796;9.026;2023-07-20T17:03:50;4.50;;;2.07;;
15297;SDS011;7750;48.796;9.026;2023-07-20T17:08:50;2.97;;;2.00;;
15297;SDS011;7750;48.796;9.026;2023-07-20T17:13:51;2.77;;;1.70;;
15297;SDS011;7750;48.796;9.026;2023-07-20T17:18:51;2.73;;;1.57;;
15297;SDS011;7750;48.796;9.026;2023-07-20T17:23:52;2.53;;;1.80;;
15297;SDS011;7750;48.796;9.026;2023-07-20T17:28:53;3.70;;;2.33;;
15297;SDS011;7750;48.796;9.026;2023-07-20T17:33:54;2.60;;;1.90;;
15297;SDS011;7750;48.796;9.026;2023-07-20T17:38:55;3.10;;;2.00;;
15297;SDS011;7750;48.796;9.026;2023-07-20T17:43:56;2.87;;;2.00;;
15297;SDS011;7750;48.796;9.026;2023-07-20T17:48:57;5.57;;;1.93;;
15297;SDS011;7750;48.796;9.026;2023-07-20T17:59:34;3.67;;;2.20;;
15297;SDS011;7750;48.796;9.026;2023-07-20T18:04:38;2.80;;;1.97;;
15297;SDS011;7750;48.796;9.026;2023-07-20T18:09:38;3.00;;;1.87;;
15297;SDS011;7750;48.796;9.026;2023-07-20T18:14:41;4.63;;;2.60;;
15297;SDS011;7750;48.796;9.026;2023-07-20T18:19:45;3.40;;;2.40;;
15297;SDS011;7750;48.796;9.026;2023-07-20T18:25:06;2.90;;;1.90;;
15297;SDS011;7750;48.796;9.026;2023-07-20T18:30:07;4.70;;;2.10;;
15297;SDS011;7750;48.796;9.026;2023-07-20T18:35:08;3.00;;;1.63;;
15297;SDS011;7750;48.796;9.026;2023-07-20T18:40:09;2.83;;;1.80;;
15297;SDS011;7750;48.796;9.026;2023-07-20T18:45:10;3.77;;;1.60;;
15297;SDS011;7750;48.796;9.026;2023-07-20T18:50:11;11.90;;;2.60;;
15297;SDS011;7750;48.796;9.026;2023-07-20T18:55:12;2.90;;;1.93;;
15297;SDS011;7750;48.796;9.026;2023-07-20T19:00:13;3.70;;;1.80;;
15297;SDS011;7750;48.796;9.026;2023-07-20T19:05:17;3.97;;;2.47;;
15297;SDS011;7750;48.796;9.026;2023-07-20T19:10:17;2.90;;;1.90;;
15297;SDS011;7750;48.796;9.026;2023-07-20T19:15:18;3.73;;;2.00;;
15297;SDS011;7750;48.796;9.026;2023-07-20T19:20:19;6.07;;;2.10;;
15297;SDS011;7750;48.796;9.026;2023-07-20T19:25:19;2.87;;;1.83;;
15297;SDS011;7750;48.796;9.026;2023-07-20T19:30:21;4.03;;;1.93;;
15297;SDS011;7750;48.796;9.026;2023-07-20T19:35:21;3.20;;;2.27;;
15297;SDS011;7750;48.796;9.026;2023-07-20T19:40:22;3.10;;;2.10;;
15297;SDS011;7750;48.796;9.026;2023-07-20T19:45:23;4.07;;;2.87;;
15297;SDS011;7750;48.796;9.026;2023-07-20T19:50:24;3.43;;;2.30;;
15297;SDS011;7750;48.796;9.026;2023-07-20T19:55:35;5.53;;;2.60;;
15297;SDS011;7750;48.796;9.026;2023-07-20T20:00:42;3.90;;;2.13;;
15297;SDS011;7750;48.796;9.026;2023-07-20T20:05:45;2.97;;;2.20;;
15297;SDS011;7750;48.796;9.026;2023-07-20T20:10:46;4.23;;;2.40;;
15297;SDS011;7750;48.796;9.026;2023-07-20T20:15:47;4.70;;;2.03;;
15297;SDS011;7750;48.796;9.026;2023-07-20T20:20:48;4.20;;;2.40;;
15297;SDS011;7750;48.796;9.026;2023-07-20T20:25:51;6.53;;;2.37;;
15297;SDS011;7750;48.796;9.026;2023-07-20T20:30:53;4.37;;;2.07;;
15297;SDS011;7750;48.796;9.026;2023-07-20T20:35:55;3.13;;;2.37;;
15297;SDS011;7750;48.796;9.026;2023-07-20T20:40:59;3.00;;;2.03;;
15297;SDS011;7750;48.796;9.026;2023-07-20T20:46:05;3.43;;;2.33;;
15297;SDS011;7750;48.796;9.026;2023-07-20T20:51:09;3.43;;;2.40;;
15297;SDS011;7750;48.796;9.026;2023-07-20T20:56:10;3.83;;;2.03;;
15297;SDS011;7750;48.796;9.026;2023-07-20T21:01:10;4.53;;;2.13;;
15297;SDS011;7750;48.796;9.026;2023-07-20T21:06:11;3.97;;;2.00;;
15297;SDS011;7750;48.796;9.026;2023-07-20T21:11:12;3.73;;;2.30;;
15297;SDS011;7750;48.796;9.026;2023-07-20T21:16:12;4.20;;;2.13;;
15297;SDS011;7750;48.796;9.026;2023-07-20T21:21:13;3.63;;;2.33;;
15297;SDS011;7750;48.796;9.026;2023-07-20T21:26:14;3.20;;;2.37;;
15297;SDS011;7750;48.796;9.026;2023-07-20T21:31:14;7.30;;;1.93;;
15297;SDS011;7750;48.796;9.026;2023-07-20T21:36:15;3.80;;;1.93;;
15297;SDS011;7750;48.796;9.026;2023-07-20T21:41:16;3.27;;;2.30;;
15297;SDS011;7750;48.796;9.026;2023-07-20T21:46:26;3.00;;;2.00;;
15297;SDS011;7750;48.796;9.026;2023-07-20T21:51:26;4.27;;;2.00;;
15297;SDS011;7750;48.796;9.026;2023-07-20T21:56:33;3.53;;;2.23;;
15297;SDS011;7750;48.796;9.026;2023-07-20T22:01:34;4.63;;;2.00;;
15297;SDS011;7750;48.796;9.026;2023-07-20T22:06:35;3.93;;;2.03;;
15297;SDS011;7750;48.796;9.026;2023-07-20T22:11:38;3.53;;;2.43;;
15297;SDS011;7750;48.796;9.026;2023-07-20T22:16:42;4.60;;;1.87;;
15297;SDS011;7750;48.796;9.026;2023-07-20T22:21:45;3.37;;;1.93;;
15297;SDS011;7750;48.796;9.026;2023-07-20T22:26:47;3.00;;;1.97;;
15297;SDS011;7750;48.796;9.026;2023-07-20T22:31:47;2.50;;;1.83;;
15297;SDS011;7750;48.796;9.026;2023-07-20T22:36:48;3.40;;;2.30;;
15297;SDS011;7750;48.796;9.026;2023-07-20T22:41:52;3.90;;;2.33;;
15297;SDS011;7750;48.796;9.026;2023-07-20T22:47:05;4.60;;;2.30;;
15297;SDS011;7750;48.796;9.026;2023-07-20T22:52:06;2.43;;;1.83;;
15297;SDS011;7750;48.796;9.026;2023-07-20T22:57:08;3.63;;;2.37;;
15297;SDS011;7750;48.796;9.026;2023-07-20T23:02:09;3.97;;;2.30;;
15297;SDS011;7750;48.796;9.026;2023-07-20T23:07:09;3.63;;;2.07;;
15297;SDS011;7750;48.796;9.026;2023-07-20T23:12:10;2.77;;;1.90;;
15297;SDS011;7750;48.796;9.026;2023-07-20T23:17:11;4.10;;;2.50;;
15297;SDS011;7750;48.796;9.026;2023-07-20T23:22:12;3.13;;;2.17;;
15297;SDS011;7750;48.796;9.026;2023-07-20T23:27:13;4.03;;;2.30;;
15297;SDS011;7750;48.796;9.026;2023-07-20T23:32:13;2.90;;;2.10;;
15297;SDS011;7750;48.796;9.026;2023-07-20T23:37:16;4.10;;;2.10;;
15297;SDS011;7750;48.796;9.026;2023-07-20T23:42:17;3.40;;;2.50;;
15297;SDS011;7750;48.796;9.026;2023-07-20T23:47:24;2.63;;;2.10;;
15297;SDS011;7750;48.796;9.026;2023-07-20T23:58:34;3.90;;;2.40;;
